Time;durP1;ratioP1;P1;durP2;ratioP2;P2;SDS_P1;SDS_P2;PMS_P1;PMS_P2;Temp;Humidity;BMP_temperature;BMP_pressure;BME280_temperature;BME280_humidity;BME280_pressure;Samples;Min_cycle;Max_cycle;Signal;HPM_P1;HPM_P2
2023/12/02 00:00:06;;;;;;;67.95;30.42;;;;;;;;;;5050527;28;20020;-80
2023/12/02 00:02:32;;;;;;;63.33;31.13;;;;;;;;;;5063724;28;20021;-79
2023/12/02 00:04:58;;;;;;;66.53;31.48;;;;;;;;;;5070329;28;20539;-80
2023/12/02 00:07:24;;;;;;;65.50;31.40;;;;;;;;;;5059920;28;20029;-80
2023/12/02 00:09:50;;;;;;;66.38;31.08;;;;;;;;;;5050462;28;20175;-80
2023/12/02 00:12:16;;;;;;;70.47;32.70;;;;;;;;;;5060780;28;20020;-80
2023/12/02 00:14:42;;;;;;;68.05;31.35;;;;;;;;;;5070114;28;20048;-80
2023/12/02 00:17:08;;;;;;;72.13;32.85;;;;;;;;;;5061139;28;20025;-80
2023/12/02 00:19:34;;;;;;;66.90;32.08;;;;;;;;;;5051729;28;20382;-80
2023/12/02 00:22:00;;;;;;;67.53;31.77;;;;;;;;;;5057221;28;20020;-80
2023/12/02 00:24:26;;;;;;;69.53;32.10;;;;;;;;;;5071871;28;20024;-79
2023/12/02 00:26:52;;;;;;;65.55;31.52;;;;;;;;;;5064898;28;20087;-80
2023/12/02 00:29:18;;;;;;;71.25;33.83;;;;;;;;;;5050328;28;20018;-79
2023/12/02 00:31:44;;;;;;;68.90;31.42;;;;;;;;;;5053984;28;20024;-80
2023/12/02 00:34:10;;;;;;;70.10;32.33;;;;;;;;;;5069173;28;20050;-80
2023/12/02 00:36:37;;;;;;;74.20;32.80;;;;;;;;;;5067599;28;20364;-80
2023/12/02 00:39:03;;;;;;;66.47;30.75;;;;;;;;;;5049561;28;20032;-80
2023/12/02 00:41:29;;;;;;;70.75;32.28;;;;;;;;;;5050355;28;20408;-80
2023/12/02 00:43:55;;;;;;;72.82;33.20;;;;;;;;;;5071414;28;20016;-79
2023/12/02 00:46:21;;;;;;;69.57;32.45;;;;;;;;;;5069579;28;20021;-80
2023/12/02 00:48:48;;;;;;;69.53;31.08;;;;;;;;;;5049707;28;20384;-80
2023/12/02 00:51:14;;;;;;;68.97;32.83;;;;;;;;;;5049742;28;20017;-79
2023/12/02 00:53:40;;;;;;;66.25;32.58;;;;;;;;;;5068004;28;20020;-80
2023/12/02 00:56:07;;;;;;;65.55;31.88;;;;;;;;;;5069317;28;20031;-79
2023/12/02 00:58:33;;;;;;;72.47;32.75;;;;;;;;;;5052330;28;20325;-79
2023/12/02 01:00:59;;;;;;;67.90;32.00;;;;;;;;;;5049173;28;20013;-79
2023/12/02 01:03:25;;;;;;;69.10;32.88;;;;;;;;;;5065891;28;20099;-79
2023/12/02 01:05:51;;;;;;;65.88;31.33;;;;;;;;;;5070867;28;20171;-80
2023/12/02 01:08:17;;;;;;;68.72;31.10;;;;;;;;;;5055518;28;20535;-79
2023/12/02 01:10:43;;;;;;;64.88;30.52;;;;;;;;;;5049069;28;20033;-80
2023/12/02 01:13:09;;;;;;;64.85;31.15;;;;;;;;;;5062790;28;20032;-79
2023/12/02 01:15:35;;;;;;;66.32;30.65;;;;;;;;;;5068876;28;20384;-79
2023/12/02 01:18:01;;;;;;;66.57;32.15;;;;;;;;;;5059426;28;20044;-79
2023/12/02 01:20:26;;;;;;;71.38;32.10;;;;;;;;;;5048847;28;20135;-79
2023/12/02 01:22:52;;;;;;;66.82;31.80;;;;;;;;;;5059285;28;20498;-80
2023/12/02 01:25:18;;;;;;;67.82;31.02;;;;;;;;;;5068970;28;20027;-80
2023/12/02 01:27:45;;;;;;;62.38;30.38;;;;;;;;;;5062156;28;20025;-79
2023/12/02 01:30:11;;;;;;;70.75;32.50;;;;;;;;;;5048872;28;20021;-80
2023/12/02 01:32:37;;;;;;;68.78;31.13;;;;;;;;;;5054137;28;20527;-79
2023/12/02 01:35:03;;;;;;;66.38;31.20;;;;;;;;;;5068755;28;20499;-79
2023/12/02 01:37:29;;;;;;;67.78;31.55;;;;;;;;;;5065219;28;20017;-79
2023/12/02 01:39:55;;;;;;;68.95;30.48;;;;;;;;;;5048614;28;20024;-79
2023/12/02 01:42:21;;;;;;;70.32;32.15;;;;;;;;;;5052437;28;20027;-80
2023/12/02 01:44:47;;;;;;;76.20;33.97;;;;;;;;;;5068904;28;20021;-80
2023/12/02 01:47:13;;;;;;;79.82;34.83;;;;;;;;;;5066886;28;20038;-79
2023/12/02 01:49:39;;;;;;;88.00;36.75;;;;;;;;;;5049743;28;20020;-79
2023/12/02 01:52:05;;;;;;;93.88;39.22;;;;;;;;;;5049553;28;20070;-79
2023/12/02 01:54:31;;;;;;;96.03;39.08;;;;;;;;;;5067858;28;20024;-79
2023/12/02 01:56:57;;;;;;;87.18;37.63;;;;;;;;;;5068290;28;20021;-79
2023/12/02 01:59:24;;;;;;;81.53;35.80;;;;;;;;;;5050483;28;20400;-79
2023/12/02 02:01:50;;;;;;;72.60;33.00;;;;;;;;;;5047970;28;20032;-80
2023/12/02 02:04:16;;;;;;;76.05;33.60;;;;;;;;;;5065281;28;20031;-79
2023/12/02 02:06:42;;;;;;;75.32;34.58;;;;;;;;;;5069740;28;20024;-79
2023/12/02 02:09:08;;;;;;;72.45;32.65;;;;;;;;;;5053397;28;20361;-79
2023/12/02 02:11:34;;;;;;;71.60;31.08;;;;;;;;;;5049653;28;20013;-79
2023/12/02 02:14:00;;;;;;;69.95;30.63;;;;;;;;;;5060782;28;20027;-79
2023/12/02 02:16:26;;;;;;;64.32;30.02;;;;;;;;;;5067675;28;20070;-79
2023/12/02 02:18:52;;;;;;;71.57;31.70;;;;;;;;;;5056292;28;20423;-79
2023/12/02 02:21:21;;;;;;;71.82;33.33;;;;;;;;;;5047778;28;20021;-80
2023/12/02 02:23:47;;;;;;;69.82;32.22;;;;;;;;;;5057909;28;20112;-79
2023/12/02 02:26:13;;;;;;;67.28;31.48;;;;;;;;;;5067778;28;20060;-79
2023/12/02 02:28:39;;;;;;;71.10;32.00;;;;;;;;;;5058564;28;20505;-80
2023/12/02 02:31:05;;;;;;;71.10;32.92;;;;;;;;;;5049005;28;20070;-80
2023/12/02 02:33:35;;;;;;;64.50;30.90;;;;;;;;;;5055988;28;20510;-79
2023/12/02 02:36:01;;;;;;;72.35;31.30;;;;;;;;;;5067555;28;20047;-79
2023/12/02 02:38:27;;;;;;;73.13;31.25;;;;;;;;;;5062912;28;20119;-79
2023/12/02 02:40:53;;;;;;;69.43;30.83;;;;;;;;;;5048530;28;20009;-79
2023/12/02 02:43:19;;;;;;;67.72;30.25;;;;;;;;;;5052045;28;20013;-79
2023/12/02 02:45:46;;;;;;;66.88;30.33;;;;;;;;;;5068594;28;20021;-79
2023/12/02 02:48:12;;;;;;;65.30;29.95;;;;;;;;;;5063794;28;20362;-79
2023/12/02 02:50:38;;;;;;;70.15;31.05;;;;;;;;;;5048937;28;20461;-79
2023/12/02 02:53:04;;;;;;;69.88;30.10;;;;;;;;;;5050389;28;20027;-79
2023/12/02 02:55:30;;;;;;;65.88;30.25;;;;;;;;;;5068743;28;20035;-79
2023/12/02 02:57:56;;;;;;;65.45;29.35;;;;;;;;;;5067008;28;20066;-79
2023/12/02 03:00:23;;;;;;;63.17;29.27;;;;;;;;;;5048746;28;20094;-79
2023/12/02 03:02:49;;;;;;;62.60;28.27;;;;;;;;;;5047399;28;20013;-79
2023/12/02 03:05:15;;;;;;;65.88;29.33;;;;;;;;;;5066117;28;20027;-80
2023/12/02 03:07:41;;;;;;;69.57;29.13;;;;;;;;;;5067429;28;20039;-79
2023/12/02 03:10:07;;;;;;;66.38;29.88;;;;;;;;;;5050318;28;20443;-79
2023/12/02 03:12:33;;;;;;;65.57;29.27;;;;;;;;;;5047246;28;20013;-79
2023/12/02 03:14:59;;;;;;;63.28;29.67;;;;;;;;;;5062749;28;20029;-79
2023/12/02 03:17:25;;;;;;;67.22;28.98;;;;;;;;;;5068207;28;20113;-79
2023/12/02 03:19:51;;;;;;;63.22;29.15;;;;;;;;;;5052853;28;20017;-79
2023/12/02 03:22:17;;;;;;;58.03;28.02;;;;;;;;;;5048441;28;20039;-79
2023/12/02 03:24:43;;;;;;;63.95;28.52;;;;;;;;;;5060758;28;20025;-79
2023/12/02 03:27:09;;;;;;;65.80;29.95;;;;;;;;;;5067777;28;20048;-79
2023/12/02 03:29:35;;;;;;;65.82;29.27;;;;;;;;;;5056278;28;20083;-79
2023/12/02 03:32:01;;;;;;;68.70;29.35;;;;;;;;;;5046516;28;20016;-79
2023/12/02 03:34:27;;;;;;;61.63;27.38;;;;;;;;;;5056156;28;20475;-79
2023/12/02 03:36:53;;;;;;;65.75;29.23;;;;;;;;;;5066873;28;20017;-79
2023/12/02 03:39:19;;;;;;;69.22;29.05;;;;;;;;;;5060993;28;20016;-79
2023/12/02 03:41:45;;;;;;;68.47;30.27;;;;;;;;;;5046878;28;20021;-79
2023/12/02 03:44:11;;;;;;;66.13;29.00;;;;;;;;;;5054428;28;20546;-79
2023/12/02 03:46:38;;;;;;;63.63;27.88;;;;;;;;;;5067189;28;20074;-79
2023/12/02 03:49:04;;;;;;;62.45;28.52;;;;;;;;;;5062202;28;20469;-79
2023/12/02 03:51:30;;;;;;;67.60;29.48;;;;;;;;;;5046933;28;20021;-79
2023/12/02 03:53:57;;;;;;;64.20;28.80;;;;;;;;;;5049251;28;20412;-78
2023/12/02 03:56:23;;;;;;;59.63;27.50;;;;;;;;;;5066649;28;20473;-79
2023/12/02 03:58:50;;;;;;;59.22;28.27;;;;;;;;;;5066283;28;20421;-79
2023/12/02 04:01:17;;;;;;;65.90;28.02;;;;;;;;;;5048379;28;20096;-79
2023/12/02 04:03:43;;;;;;;67.10;29.17;;;;;;;;;;5048281;28;20070;-77
2023/12/02 04:06:09;;;;;;;63.03;28.38;;;;;;;;;;5066235;28;20241;-79
2023/12/02 04:08:35;;;;;;;63.88;27.88;;;;;;;;;;5066433;28;20021;-79
2023/12/02 04:11:02;;;;;;;62.65;27.60;;;;;;;;;;5051627;28;20059;-79
2023/12/02 04:13:29;;;;;;;59.95;27.05;;;;;;;;;;5050407;28;20560;-79
2023/12/02 04:15:55;;;;;;;56.90;26.13;;;;;;;;;;5066561;28;20024;-79
2023/12/02 04:18:21;;;;;;;64.72;27.67;;;;;;;;;;5070243;28;20104;-79
2023/12/02 04:20:47;;;;;;;65.78;28.90;;;;;;;;;;5057491;28;20147;-79
2023/12/02 04:23:14;;;;;;;65.28;27.98;;;;;;;;;;5050375;28;20067;-79
2023/12/02 04:25:40;;;;;;;69.65;28.92;;;;;;;;;;5063617;28;20024;-79
2023/12/02 04:28:07;;;;;;;68.60;28.67;;;;;;;;;;5070054;28;20027;-79
2023/12/02 04:30:33;;;;;;;71.40;28.52;;;;;;;;;;5060334;28;20017;-79
2023/12/02 04:32:59;;;;;;;69.15;29.20;;;;;;;;;;5049694;28;20037;-79
2023/12/02 04:35:25;;;;;;;68.93;28.42;;;;;;;;;;5060496;28;20423;-79
2023/12/02 04:37:51;;;;;;;68.80;29.13;;;;;;;;;;5069608;28;20016;-79
2023/12/02 04:40:17;;;;;;;63.30;27.42;;;;;;;;;;5061368;28;20017;-79
2023/12/02 04:42:43;;;;;;;71.97;29.67;;;;;;;;;;5049552;28;20395;-79
2023/12/02 04:45:10;;;;;;;73.38;29.02;;;;;;;;;;5057137;28;20020;-79
2023/12/02 04:47:36;;;;;;;70.82;29.48;;;;;;;;;;5069975;28;20111;-80
2023/12/02 04:50:03;;;;;;;76.30;30.55;;;;;;;;;;5066980;28;20017;-80
2023/12/02 04:52:29;;;;;;;66.55;27.73;;;;;;;;;;5050963;28;20503;-81
2023/12/02 04:54:55;;;;;;;70.22;29.83;;;;;;;;;;5049514;28;20055;-80
2023/12/02 04:57:21;;;;;;;71.63;28.90;;;;;;;;;;5069404;28;20452;-81
2023/12/02 04:59:47;;;;;;;73.18;30.67;;;;;;;;;;5069983;28;20017;-82
2023/12/02 05:02:14;;;;;;;74.38;30.83;;;;;;;;;;5050644;28;20029;-81
2023/12/02 05:04:40;;;;;;;73.18;31.13;;;;;;;;;;5049315;28;20070;-81
2023/12/02 05:07:07;;;;;;;79.03;31.83;;;;;;;;;;5067304;28;20112;-79
2023/12/02 05:09:33;;;;;;;75.22;30.83;;;;;;;;;;5070788;28;20012;-80
2023/12/02 05:11:59;;;;;;;75.22;30.23;;;;;;;;;;5054341;28;20074;-81
2023/12/02 05:14:25;;;;;;;76.18;31.40;;;;;;;;;;5049363;28;20054;-81
2023/12/02 05:16:52;;;;;;;76.95;31.45;;;;;;;;;;5063408;28;20020;-78
2023/12/02 05:19:18;;;;;;;80.47;31.83;;;;;;;;;;5070462;28;20008;-84
2023/12/02 05:21:44;;;;;;;80.63;32.00;;;;;;;;;;5057697;28;20074;-82
2023/12/02 05:24:10;;;;;;;86.00;34.00;;;;;;;;;;5051162;28;20439;-84
2023/12/02 05:26:36;;;;;;;80.57;32.65;;;;;;;;;;5061146;28;20021;-82
2023/12/02 05:29:05;;;;;;;83.68;32.28;;;;;;;;;;5069407;28;20016;-83
2023/12/02 05:31:31;;;;;;;85.40;32.75;;;;;;;;;;5069251;28;20008;-80
2023/12/02 05:33:58;;;;;;;87.72;33.92;;;;;;;;;;5069353;28;20120;-80
2023/12/02 05:36:24;;;;;;;83.97;34.22;;;;;;;;;;5061770;28;20039;-80
2023/12/02 05:38:50;;;;;;;94.43;34.33;;;;;;;;;;5049391;28;20017;-80
2023/12/02 05:41:16;;;;;;;87.57;32.88;;;;;;;;;;5056072;28;20468;-81
2023/12/02 05:43:42;;;;;;;78.63;31.90;;;;;;;;;;5069622;28;20035;-80
2023/12/02 05:46:14;;;;;;;75.65;30.83;;;;;;;;;;5058404;28;20151;-79
2023/12/02 05:48:40;;;;;;;69.60;28.25;;;;;;;;;;5068420;28;20038;-78
2023/12/02 05:51:06;;;;;;;74.40;29.63;;;;;;;;;;5063730;28;20100;-78
2023/12/02 05:53:32;;;;;;;81.25;30.08;;;;;;;;;;5047874;28;20108;-79
2023/12/02 05:55:58;;;;;;;71.80;29.50;;;;;;;;;;5049749;28;20461;-79
2023/12/02 05:58:24;;;;;;;73.72;29.45;;;;;;;;;;5049802;28;20104;-78
2023/12/02 06:00:51;;;;;;;72.18;29.10;;;;;;;;;;5050513;28;20016;-78
2023/12/02 06:03:17;;;;;;;71.05;28.60;;;;;;;;;;5048905;28;20108;-78
2023/12/02 06:05:43;;;;;;;71.00;29.67;;;;;;;;;;5049861;28;20121;-77
2023/12/02 06:08:09;;;;;;;70.63;28.58;;;;;;;;;;5049812;28;20033;-78
2023/12/02 06:10:35;;;;;;;76.18;31.33;;;;;;;;;;5048190;28;20028;-78
2023/12/02 06:13:01;;;;;;;76.65;30.75;;;;;;;;;;5051540;28;20058;-78
2023/12/02 06:15:27;;;;;;;78.55;30.05;;;;;;;;;;5049272;28;20052;-78
2023/12/02 06:17:56;;;;;;;79.30;30.77;;;;;;;;;;5065364;28;20017;-78
2023/12/02 06:20:24;;;;;;;83.15;31.60;;;;;;;;;;5069460;28;20009;-78
2023/12/02 06:22:50;;;;;;;76.95;31.70;;;;;;;;;;5053101;28;20017;-79
2023/12/02 06:25:16;;;;;;;86.32;33.65;;;;;;;;;;5048575;28;20009;-80
2023/12/02 06:27:42;;;;;;;81.57;33.88;;;;;;;;;;5062337;28;20032;-77
2023/12/02 06:30:09;;;;;;;86.97;34.05;;;;;;;;;;5059083;28;20082;-78
2023/12/02 06:32:35;;;;;;;85.10;34.28;;;;;;;;;;5053297;28;20085;-79
2023/12/02 06:35:01;;;;;;;82.15;32.88;;;;;;;;;;5055934;28;20028;-78
2023/12/02 06:37:27;;;;;;;80.93;31.80;;;;;;;;;;5058952;28;20040;-79
2023/12/02 06:39:53;;;;;;;77.53;33.55;;;;;;;;;;5061807;28;20017;-78
2023/12/02 06:42:19;;;;;;;81.35;31.27;;;;;;;;;;5056999;28;20349;-79
2023/12/02 06:44:45;;;;;;;84.18;31.30;;;;;;;;;;5052129;28;20029;-77
2023/12/02 06:47:13;;;;;;;85.07;31.75;;;;;;;;;;5055833;28;20021;-77
2023/12/02 06:49:39;;;;;;;85.38;31.67;;;;;;;;;;5069221;28;20023;-80
2023/12/02 06:52:05;;;;;;;76.93;29.67;;;;;;;;;;5060267;28;20392;-80
2023/12/02 06:54:35;;;;;;;76.38;30.38;;;;;;;;;;5050817;28;20035;-80
2023/12/02 06:57:01;;;;;;;76.43;30.75;;;;;;;;;;5064103;28;20377;-80
2023/12/02 06:59:27;;;;;;;74.00;28.75;;;;;;;;;;5058488;28;20627;-80
2023/12/02 07:01:53;;;;;;;78.75;30.77;;;;;;;;;;5051665;28;20021;-80
2023/12/02 07:04:19;;;;;;;80.90;30.08;;;;;;;;;;5047043;28;20017;-80
2023/12/02 07:06:45;;;;;;;79.72;29.85;;;;;;;;;;5050403;28;20017;-80
2023/12/02 07:09:11;;;;;;;73.10;29.73;;;;;;;;;;5065069;28;20312;-80
2023/12/02 07:11:37;;;;;;;73.72;28.50;;;;;;;;;;5064006;28;20428;-80
2023/12/02 07:14:03;;;;;;;73.30;28.30;;;;;;;;;;5046054;28;20021;-80
2023/12/02 07:16:29;;;;;;;68.15;27.05;;;;;;;;;;5045933;28;20472;-80
2023/12/02 07:18:55;;;;;;;71.20;28.90;;;;;;;;;;5067550;28;20039;-80
2023/12/02 07:21:22;;;;;;;71.82;28.00;;;;;;;;;;5065959;28;20113;-80
2023/12/02 07:23:48;;;;;;;67.15;27.38;;;;;;;;;;5047222;28;20024;-80
2023/12/02 07:26:14;;;;;;;68.07;27.30;;;;;;;;;;5046197;28;20237;-80
2023/12/02 07:28:41;;;;;;;71.95;28.27;;;;;;;;;;5064192;28;20365;-80
2023/12/02 07:31:12;;;;;;;63.92;27.20;;;;;;;;;;5065588;28;20017;-80
2023/12/02 07:33:38;;;;;;;62.65;26.33;;;;;;;;;;5050646;28;20037;-80
2023/12/02 07:36:04;;;;;;;60.65;26.65;;;;;;;;;;5047089;28;20029;-79
2023/12/02 07:38:30;;;;;;;60.13;24.27;;;;;;;;;;5060130;28;20017;-80
2023/12/02 07:40:56;;;;;;;61.75;24.48;;;;;;;;;;5065857;28;20009;-80
2023/12/02 07:43:22;;;;;;;57.33;23.73;;;;;;;;;;5054546;28;20071;-80
2023/12/02 07:45:48;;;;;;;53.20;22.15;;;;;;;;;;5049893;28;20017;-80
2023/12/02 07:48:14;;;;;;;47.08;20.80;;;;;;;;;;5060898;28;20408;-80
2023/12/02 07:50:40;;;;;;;49.20;20.05;;;;;;;;;;5069544;28;20373;-80
2023/12/02 07:53:06;;;;;;;51.83;19.98;;;;;;;;;;5059646;28;20090;-80
2023/12/02 07:55:32;;;;;;;41.80;19.20;;;;;;;;;;5049457;28;20021;-80
2023/12/02 07:57:58;;;;;;;48.60;18.55;;;;;;;;;;5059124;28;20024;-81
2023/12/02 08:00:24;;;;;;;41.67;19.00;;;;;;;;;;5069553;28;20115;-79
2023/12/02 08:02:50;;;;;;;40.88;18.23;;;;;;;;;;5064193;28;20021;-79
2023/12/02 08:05:17;;;;;;;36.55;17.45;;;;;;;;;;5049451;28;20797;-79
2023/12/02 08:07:43;;;;;;;32.30;15.88;;;;;;;;;;5054508;28;20016;-80
2023/12/02 08:10:10;;;;;;;35.00;15.63;;;;;;;;;;5069272;28;20806;-79
2023/12/02 08:12:36;;;;;;;34.10;16.23;;;;;;;;;;5066470;28;20021;-80
2023/12/02 08:15:02;;;;;;;29.80;14.75;;;;;;;;;;5049244;28;20132;-80
2023/12/02 08:17:28;;;;;;;34.80;15.55;;;;;;;;;;5050315;28;20020;-79
2023/12/02 08:19:55;;;;;;;29.38;15.43;;;;;;;;;;5049176;28;20013;-79
2023/12/02 08:22:24;;;;;;;32.83;15.02;;;;;;;;;;5052009;28;20088;-79
2023/12/02 08:24:50;;;;;;;32.65;14.00;;;;;;;;;;5068943;28;20021;-80
2023/12/02 08:27:17;;;;;;;31.30;13.73;;;;;;;;;;5068862;28;20491;-80
2023/12/02 08:29:43;;;;;;;25.40;13.38;;;;;;;;;;5045828;28;20047;-80
2023/12/02 08:32:09;;;;;;;23.98;12.07;;;;;;;;;;5028782;28;20065;-80
2023/12/02 08:34:35;;;;;;;24.55;12.48;;;;;;;;;;5066196;28;20419;-80
2023/12/02 08:37:01;;;;;;;22.90;12.02;;;;;;;;;;5068701;28;20103;-80
2023/12/02 08:39:27;;;;;;;20.52;10.70;;;;;;;;;;5051741;28;20025;-80
2023/12/02 08:41:53;;;;;;;18.88;10.13;;;;;;;;;;5048885;28;20529;-80
2023/12/02 08:44:19;;;;;;;20.33;10.02;;;;;;;;;;5063658;28;20048;-80
2023/12/02 08:46:45;;;;;;;17.10;9.30;;;;;;;;;;5069865;28;20019;-80
2023/12/02 08:49:11;;;;;;;15.48;8.82;;;;;;;;;;5054657;28;20357;-79
2023/12/02 08:51:39;;;;;;;12.82;7.78;;;;;;;;;;5049652;28;20208;-82
2023/12/02 08:54:05;;;;;;;14.07;7.55;;;;;;;;;;5060858;28;20063;-80
2023/12/02 08:56:31;;;;;;;12.55;6.95;;;;;;;;;;5068746;28;20025;-81
2023/12/02 08:58:59;;;;;;;12.57;7.13;;;;;;;;;;5057743;28;20013;-80
2023/12/02 09:01:25;;;;;;;11.88;6.80;;;;;;;;;;5048265;28;20025;-80
2023/12/02 09:03:51;;;;;;;10.75;5.68;;;;;;;;;;5057529;28;20044;-80
2023/12/02 09:06:17;;;;;;;7.93;4.10;;;;;;;;;;5068303;28;20024;-80
2023/12/02 09:08:43;;;;;;;7.15;4.20;;;;;;;;;;5060060;28;20029;-80
2023/12/02 09:11:09;;;;;;;5.65;3.53;;;;;;;;;;5049134;28;20017;-80
2023/12/02 09:13:38;;;;;;;5.90;3.40;;;;;;;;;;5054380;28;20043;-80
2023/12/02 09:16:04;;;;;;;4.40;3.28;;;;;;;;;;5068633;28;20385;-80
2023/12/02 09:18:34;;;;;;;8.50;3.88;;;;;;;;;;5063026;28;20025;-80
2023/12/02 09:21:00;;;;;;;4.68;3.17;;;;;;;;;;5048171;28;20104;-80
2023/12/02 09:23:27;;;;;;;5.53;2.67;;;;;;;;;;5053392;28;20013;-80
2023/12/02 09:25:53;;;;;;;4.90;3.30;;;;;;;;;;5068725;28;20032;-80
2023/12/02 09:28:26;;;;;;;5.18;2.78;;;;;;;;;;5067567;28;20016;-80
2023/12/02 09:30:55;;;;;;;7.22;3.38;;;;;;;;;;5049605;28;20054;-80
2023/12/02 09:33:21;;;;;;;5.43;3.38;;;;;;;;;;5049943;28;20086;-80
2023/12/02 09:35:51;;;;;;;6.20;3.38;;;;;;;;;;5068135;28;20067;-80
2023/12/02 09:38:17;;;;;;;7.53;3.35;;;;;;;;;;5069185;28;20066;-80
2023/12/02 09:40:58;;;;;;;6.47;3.55;;;;;;;;;;5049410;28;20021;-80
2023/12/02 09:43:32;;;;;;;5.15;3.22;;;;;;;;;;5049346;28;20009;-80
2023/12/02 09:46:13;;;;;;;7.32;3.45;;;;;;;;;;5068012;28;20025;-80
2023/12/02 09:48:46;;;;;;;6.00;3.63;;;;;;;;;;5065298;28;20245;-80
2023/12/02 09:51:20;;;;;;;4.60;3.38;;;;;;;;;;5049380;28;20077;-80
2023/12/02 09:53:46;;;;;;;6.70;3.92;;;;;;;;;;5050569;28;20028;-80
2023/12/02 09:56:16;;;;;;;5.25;4.25;;;;;;;;;;5068020;28;20028;-80
2023/12/02 09:58:42;;;;;;;6.43;3.55;;;;;;;;;;5067781;28;20103;-80
2023/12/02 10:01:13;;;;;;;6.28;3.83;;;;;;;;;;5049209;28;20103;-80
2023/12/02 10:04:03;;;;;;;6.38;3.33;;;;;;;;;;5048926;28;20025;-80
2023/12/02 10:06:48;;;;;;;4.30;3.17;;;;;;;;;;5067809;28;20029;-80
2023/12/02 10:09:14;;;;;;;5.25;2.92;;;;;;;;;;5063078;28;20518;-80
2023/12/02 10:11:58;;;;;;;5.18;2.85;;;;;;;;;;5048294;28;20033;-79
2023/12/02 10:14:26;;;;;;;5.47;2.72;;;;;;;;;;5054398;28;20101;-80
2023/12/02 10:16:55;;;;;;;3.60;2.67;;;;;;;;;;5068954;28;20016;-79
2023/12/02 10:19:27;;;;;;;6.33;3.03;;;;;;;;;;5063179;28;20013;-80
2023/12/02 10:21:54;;;;;;;4.57;2.90;;;;;;;;;;5047441;28;20238;-80
2023/12/02 10:24:23;;;;;;;3.20;2.40;;;;;;;;;;5051343;28;20005;-80
2023/12/02 10:27:06;;;;;;;3.83;2.50;;;;;;;;;;5068803;28;20013;-79
2023/12/02 10:29:33;;;;;;;3.92;2.55;;;;;;;;;;5062865;28;20013;-80
2023/12/02 10:32:13;;;;;;;4.75;2.70;;;;;;;;;;5048435;28;20350;-80
2023/12/02 10:34:42;;;;;;;5.90;2.60;;;;;;;;;;5052565;28;20044;-80
2023/12/02 10:37:10;;;;;;;3.92;2.47;;;;;;;;;;5067325;28;20514;-80
2023/12/02 10:39:41;;;;;;;5.72;5.00;;;;;;;;;;5063348;28;20045;-79
2023/12/02 10:42:09;;;;;;;3.78;3.35;;;;;;;;;;5047144;28;20016;-80
2023/12/02 10:44:38;;;;;;;3.95;2.60;;;;;;;;;;5050512;28;20016;-80
2023/12/02 10:47:06;;;;;;;3.95;2.60;;;;;;;;;;5068600;28;20138;-80
2023/12/02 10:49:33;;;;;;;3.17;2.38;;;;;;;;;;5064845;28;20054;-80
2023/12/02 10:52:03;;;;;;;4.13;2.28;;;;;;;;;;5047295;28;20010;-80
2023/12/02 10:54:33;;;;;;;7.25;2.47;;;;;;;;;;5048623;28;20229;-80
2023/12/02 10:57:06;;;;;;;4.97;2.30;;;;;;;;;;5068361;28;20483;-80
2023/12/02 10:59:34;;;;;;;3.47;2.30;;;;;;;;;;5065895;28;20516;-80
2023/12/02 11:02:20;;;;;;;4.25;2.47;;;;;;;;;;5047044;28;20428;-80
2023/12/02 11:04:48;;;;;;;6.40;2.58;;;;;;;;;;5048384;28;20523;-80
2023/12/02 11:07:15;;;;;;;5.85;2.42;;;;;;;;;;5047026;28;20388;-80
2023/12/02 11:10:02;;;;;;;3.17;2.45;;;;;;;;;;5048063;28;20014;-79
2023/12/02 11:12:31;;;;;;;4.28;2.60;;;;;;;;;;5066987;28;20021;-80
2023/12/02 11:15:04;;;;;;;3.35;2.83;;;;;;;;;;5063972;28;20379;-80
2023/12/02 11:17:33;;;;;;;4.15;2.40;;;;;;;;;;5046875;28;20063;-80
2023/12/02 11:20:05;;;;;;;3.83;2.33;;;;;;;;;;5053829;28;20074;-80
2023/12/02 11:22:50;;;;;;;3.13;2.00;;;;;;;;;;5071076;28;20017;-80
2023/12/02 11:25:34;;;;;;;6.18;2.42;;;;;;;;;;5065953;28;20024;-80
2023/12/02 11:28:10;;;;;;;3.88;2.60;;;;;;;;;;5050994;28;20023;-80
2023/12/02 11:30:36;;;;;;;4.10;2.83;;;;;;;;;;5058044;28;20070;-80
2023/12/02 11:33:21;;;;;;;4.78;2.47;;;;;;;;;;5070620;28;20044;-80
2023/12/02 11:36:19;;;;;;;6.05;2.40;;;;;;;;;;5063783;28;20056;-80
2023/12/02 11:39:05;;;;;;;4.65;2.40;;;;;;;;;;5017398;28;20098;-81
2023/12/02 11:41:47;;;;;;;5.47;2.72;;;;;;;;;;5062849;28;20036;-80
2023/12/02 11:44:32;;;;;;;4.07;2.80;;;;;;;;;;5070648;28;20017;-80
2023/12/02 11:47:17;;;;;;;4.25;2.28;;;;;;;;;;5055015;28;20104;-80
2023/12/02 11:49:57;;;;;;;3.67;2.50;;;;;;;;;;5050947;28;20021;-80
2023/12/02 11:52:41;;;;;;;5.22;2.90;;;;;;;;;;5070403;28;20024;-80
2023/12/02 11:55:08;;;;;;;6.30;4.43;;;;;;;;;;5070497;28;20032;-80
2023/12/02 11:57:40;;;;;;;6.95;6.15;;;;;;;;;;5052267;28;20354;-80
2023/12/02 12:00:13;;;;;;;6.63;4.50;;;;;;;;;;5051412;28;20017;-79
2023/12/02 12:02:45;;;;;;;7.45;4.22;;;;;;;;;;5069379;28;20016;-80
2023/12/02 12:05:18;;;;;;;5.93;3.22;;;;;;;;;;5070236;28;20472;-80
2023/12/02 12:07:50;;;;;;;4.15;2.28;;;;;;;;;;5050760;28;20104;-80
2023/12/02 12:10:35;;;;;;;4.55;2.15;;;;;;;;;;5050077;28;20473;-80
2023/12/02 12:13:01;;;;;;;2.33;1.80;;;;;;;;;;5030246;28;20469;-80
2023/12/02 12:15:27;;;;;;;4.05;2.33;;;;;;;;;;5031317;28;20037;-79
2023/12/02 12:17:53;;;;;;;3.85;2.17;;;;;;;;;;5030392;28;20100;-80
2023/12/02 12:20:25;;;;;;;2.78;1.92;;;;;;;;;;5031197;28;20013;-80
2023/12/02 12:22:51;;;;;;;2.95;2.05;;;;;;;;;;5068464;28;20468;-80
2023/12/02 12:25:18;;;;;;;2.55;1.95;;;;;;;;;;5069812;28;20029;-79
2023/12/02 12:27:44;;;;;;;2.00;1.80;;;;;;;;;;5052317;28;20068;-80
2023/12/02 12:30:10;;;;;;;2.42;2.20;;;;;;;;;;5050145;28;20027;-79
2023/12/02 12:32:38;;;;;;;4.43;1.92;;;;;;;;;;5065197;28;20037;-80
2023/12/02 12:35:11;;;;;;;3.70;2.45;;;;;;;;;;5070979;28;20020;-80
2023/12/02 12:37:37;;;;;;;4.13;2.35;;;;;;;;;;5054281;28;20453;-79
2023/12/02 12:40:04;;;;;;;4.35;2.70;;;;;;;;;;5049592;28;20114;-80
2023/12/02 12:42:30;;;;;;;4.38;2.80;;;;;;;;;;5063039;28;20021;-80
2023/12/02 12:44:59;;;;;;;4.13;3.20;;;;;;;;;;5069380;28;20357;-80
2023/12/02 12:47:27;;;;;;;5.67;3.50;;;;;;;;;;5057316;28;20028;-79
2023/12/02 12:49:55;;;;;;;4.00;2.85;;;;;;;;;;5050665;28;20362;-80
2023/12/02 12:52:21;;;;;;;2.10;1.83;;;;;;;;;;5061795;28;20021;-80
2023/12/02 12:54:51;;;;;;;3.03;2.00;;;;;;;;;;5070646;28;20071;-80
2023/12/02 12:57:35;;;;;;;2.00;1.60;;;;;;;;;;5059215;28;20703;-80
2023/12/02 13:00:01;;;;;;;3.25;2.20;;;;;;;;;;5049246;28;20040;-80
2023/12/02 13:02:45;;;;;;;3.50;2.05;;;;;;;;;;5059865;28;20039;-80
2023/12/02 13:05:16;;;;;;;4.25;2.65;;;;;;;;;;5070248;28;20013;-80
2023/12/02 13:07:42;;;;;;;;;;;;;;;;;;5057105;28;20049;-79
2023/12/02 13:10:10;;;;;;;3.90;1.90;;;;;;;;;;5050118;28;20364;-80
2023/12/02 13:12:38;;;;;;;5.13;2.33;;;;;;;;;;5059315;28;20115;-80
2023/12/02 13:15:05;;;;;;;3.97;1.80;;;;;;;;;;5068769;28;20029;-80
2023/12/02 13:17:37;;;;;;;6.60;2.20;;;;;;;;;;5058968;28;20107;-80
2023/12/02 13:20:04;;;;;;;2.10;1.60;;;;;;;;;;5048682;28;20460;-79
2023/12/02 13:22:31;;;;;;;1.83;1.63;;;;;;;;;;5057508;28;20034;-80
2023/12/02 13:25:00;;;;;;;2.95;1.88;;;;;;;;;;5068720;28;20020;-80
2023/12/02 13:27:29;;;;;;;4.15;2.30;;;;;;;;;;5060969;28;20020;-80
2023/12/02 13:29:58;;;;;;;3.67;2.33;;;;;;;;;;5048571;28;20041;-79
2023/12/02 13:32:25;;;;;;;2.38;1.50;;;;;;;;;;5055261;28;20090;-79
2023/12/02 13:34:57;;;;;;;2.97;1.60;;;;;;;;;;5068281;28;20078;-80
2023/12/02 13:37:38;;;;;;;2.92;1.40;;;;;;;;;;5062841;28;20013;-80
2023/12/02 13:40:06;;;;;;;1.83;1.27;;;;;;;;;;5048402;28;20009;-80
2023/12/02 13:42:36;;;;;;;1.42;1.27;;;;;;;;;;5054400;28;20012;-80
2023/12/02 13:45:04;;;;;;;;;;;;;;;;;;5070245;28;20096;-80
2023/12/02 13:47:36;;;;;;;2.13;1.52;;;;;;;;;;5062119;28;19954;-79
2023/12/02 13:50:02;;;;;;;2.47;1.40;;;;;;;;;;5048530;28;20017;-80
2023/12/02 13:52:47;;;;;;;2.92;1.63;;;;;;;;;;5055004;28;20034;-79
2023/12/02 13:55:22;;;;;;;6.55;3.08;;;;;;;;;;5068241;28;20124;-80
2023/12/02 13:57:54;;;;;;;5.47;3.80;;;;;;;;;;5061518;28;20088;-80
2023/12/02 14:00:24;;;;;;;17.60;9.23;;;;;;;;;;5049084;28;20016;-80
2023/12/02 14:03:05;;;;;;;12.27;6.77;;;;;;;;;;5055931;28;20074;-80
2023/12/02 14:05:31;;;;;;;9.57;3.88;;;;;;;;;;5067694;28;20406;-80
2023/12/02 14:08:01;;;;;;;16.30;6.40;;;;;;;;;;5061254;28;20025;-80
2023/12/02 14:10:28;;;;;;;11.35;4.63;;;;;;;;;;5048895;28;20018;-80
2023/12/02 14:13:07;;;;;;;7.85;3.80;;;;;;;;;;5054406;28;20516;-80
2023/12/02 14:15:49;;;;;;;7.47;3.35;;;;;;;;;;5068805;28;20036;-80
2023/12/02 14:18:40;;;;;;;5.18;3.35;;;;;;;;;;5059350;28;20009;-80
2023/12/02 14:21:06;;;;;;;4.82;3.47;;;;;;;;;;5048760;28;20035;-80
2023/12/02 14:23:41;;;;;;;8.00;5.05;;;;;;;;;;5058924;28;20020;-80
2023/12/02 14:26:10;;;;;;;8.45;5.63;;;;;;;;;;5067792;28;20024;-80
2023/12/02 14:28:55;;;;;;;8.38;5.20;;;;;;;;;;5057471;28;20028;-80
2023/12/02 14:31:30;;;;;;;7.85;4.97;;;;;;;;;;5048122;28;20082;-80